Detall de PIREP

Printer-friendly versionPDF version

[2013/06/20 09:06:00]
Flight IATA:CT1004
Pilot Number:042
Company ICAO:CAT
Aircraft Type:C172/A
PAX:2
Departing Airport: LFMT
Destination Airport: LFMP
Alternate Airport:LFBO
Online: VATSIM
Route:KELAM
Flight Level:F095
No Slew and time accel
No pause
Crash detect
Detect pilot in Cockpit between each 30 and 45 minutes
09:06 Zero fuel Weight: 2010 Lbs, Fuel Weight: 335 Lbs
09:06 VATSIM:LFMT 200841Z 20006KT 170V230 9999 SCT014 BKN240 21/16 Q1015 NOSIG
09:06 VATSIM:LFMP 200830Z 31009KT 9999 SCT050 SCT130 19/12 Q1016 NOSIG
09:06 VOICE CATALONIAN/FLAMA DEL CANIGO
09:09 Parking Brakes off
09:15 Take-off
09:15 Take off Weight: 2343 Lbs
09:15 Wind: 119º @ 019 Knots Heading: 305º
09:15 POS N43º 34´ 49´´ E003º 58´ 06´´
09:16 Flaps:2 at 77 Knots
09:16 Flaps:1 at 68 Knots
09:16 Flaps:0 at 75 Knots
09:31 Wind:297º@016 Knots Heading: 232º Ground Speed: 117 Knots Altitude 6026 ft
09:46 Wind:301º@014 Knots Heading: 171º Ground Speed: 136 Knots Altitude 5278 ft
10:01 Wind:359º@002 Knots Heading: 316º Ground Speed: 106 Knots Altitude 1719 ft
10:01 Flaps:1 at 104 Knots
10:02 Flaps:2 at 88 Knots
10:05 Flaps:3 at 78 Knots
10:06 TouchDown:Rate -169 ft/min Speed: 64 Knots
10:06 VATSIM:LFMP 200930Z 31008KT 290V350 9999 SCT040 BKN130 19/12 Q1016 NOSIG
10:06 Land
10:06 Wind:000º@002 Knots
10:06 Heading: 328º
10:06 Flight Duration: 00:51
10:06 Landing Weight: 2296 Lbs
10:06 POS N42º 44´ 23´´ E002º 52´ 25´´
10:08 Parking brakes on
10:08 Block to Block Duration: 00:59
10:08 Final Fuel: 284 Lbls
10:08 Spent Fuel: 50 Lbls
10:08 Flight Length: 93 NM
10:08 TOD Land Length: 93 NM

Exportar CSV

Powered by Drupal - Modified by Danger4k